createdAt,value
2018-09-02T00:00:53.839Z,78.38
2018-09-02T00:03:22.745Z,76.96
2018-09-02T00:05:51.644Z,76.93
2018-09-02T00:08:20.542Z,75.99
2018-09-02T00:10:49.416Z,76.90
2018-09-02T00:13:18.529Z,77.84
2018-09-02T00:15:47.476Z,77.44
2018-09-02T00:18:16.521Z,77.33
2018-09-02T00:20:45.523Z,77.58
2018-09-02T00:23:14.470Z,76.01
2018-09-02T00:25:43.385Z,75.54
2018-09-02T00:28:12.298Z,75.91
2018-09-02T00:30:41.188Z,77.07
2018-09-02T00:33:10.171Z,77.80
2018-09-02T00:35:39.070Z,76.93
2018-09-02T00:38:08.302Z,76.79
2018-09-02T00:40:37.185Z,77.62
2018-09-02T00:43:06.208Z,76.92
2018-09-02T00:45:35.120Z,78.10
2018-09-02T00:48:04.005Z,77.72
2018-09-02T00:50:32.937Z,76.76
2018-09-02T00:53:01.966Z,77.16
2018-09-02T00:55:30.826Z,76.76
2018-09-02T00:57:59.762Z,76.14
2018-09-02T01:00:40.612Z,75.67
2018-09-02T01:03:09.677Z,76.52
2018-09-02T01:05:38.808Z,76.18
2018-09-02T01:08:07.843Z,76.57
2018-09-02T01:10:36.949Z,76.66
2018-09-02T01:13:06.721Z,76.89
2018-09-02T01:15:35.632Z,77.63
2018-09-02T01:18:04.598Z,77.21
2018-09-02T01:20:33.607Z,75.45
2018-09-02T01:23:02.657Z,75.97
2018-09-02T01:25:31.589Z,75.39
2018-09-02T01:28:00.530Z,74.46
2018-09-02T01:30:29.530Z,75.43
2018-09-02T01:32:58.485Z,76.94
2018-09-02T01:35:32.726Z,76.57
2018-09-02T01:38:03.469Z,77.38
2018-09-02T01:40:33.209Z,77.17
2018-09-02T01:43:02.329Z,76.95
2018-09-02T01:45:31.704Z,76.42
2018-09-02T01:48:00.824Z,77.45
2018-09-02T01:50:29.930Z,76.49
2018-09-02T01:52:59.033Z,76.31
2018-09-02T01:55:28.143Z,76.52
2018-09-02T01:57:57.472Z,76.42
2018-09-02T02:00:26.367Z,78.46
2018-09-02T02:02:55.486Z,78.04
2018-09-02T02:05:24.533Z,78.62
2018-09-02T02:07:53.453Z,78.19
2018-09-02T02:10:22.421Z,77.86
2018-09-02T02:12:51.412Z,77.81
2018-09-02T02:15:20.402Z,78.35
2018-09-02T02:17:49.395Z,77.96
2018-09-02T02:20:18.342Z,78.08
2018-09-02T02:22:47.448Z,78.75
2018-09-02T02:25:16.357Z,79.00
2018-09-02T02:27:45.347Z,78.79
2018-09-02T02:30:14.343Z,77.34
2018-09-02T02:32:43.271Z,77.62
2018-09-02T02:35:12.271Z,77.24
2018-09-02T02:37:41.302Z,76.90
2018-09-02T02:40:10.676Z,76.53
2018-09-02T02:42:39.604Z,77.32
2018-09-02T02:45:08.569Z,77.35
2018-09-02T02:47:37.887Z,77.00
2018-09-02T02:50:07.002Z,77.57
2018-09-02T02:52:41.251Z,77.39
2018-09-02T02:55:10.447Z,77.95
2018-09-02T02:57:39.448Z,77.78
2018-09-02T03:00:08.480Z,77.27
2018-09-02T03:02:37.395Z,76.79
2018-09-02T03:05:07.166Z,77.33
2018-09-02T03:07:36.132Z,77.83
2018-09-02T03:10:05.130Z,77.53
2018-09-02T03:12:34.077Z,77.32
2018-09-02T03:15:03.064Z,77.26
2018-09-02T03:17:31.973Z,77.64
2018-09-02T03:20:00.902Z,77.42
2018-09-02T03:22:29.858Z,77.69
2018-09-02T03:24:58.887Z,76.94
2018-09-02T03:27:27.947Z,76.34
2018-09-02T03:29:57.183Z,77.18
2018-09-02T03:32:26.143Z,77.28
2018-09-02T03:34:55.145Z,77.90
2018-09-02T03:37:24.128Z,77.42
2018-09-02T03:39:53.120Z,77.65
2018-09-02T03:42:22.106Z,77.95
2018-09-02T03:44:51.056Z,77.21
2018-09-02T03:47:20.003Z,77.36
2018-09-02T03:49:48.956Z,77.65
2018-09-02T03:52:17.916Z,77.85
2018-09-02T03:54:46.836Z,78.40
2018-09-02T03:57:15.748Z,78.85
2018-09-02T03:59:44.720Z,78.53
2018-09-02T04:02:13.642Z,78.59
2018-09-02T04:04:42.586Z,78.00
2018-09-02T04:07:11.504Z,78.32
2018-09-02T04:09:40.433Z,78.92
2018-09-02T04:12:09.373Z,79.63
2018-09-02T04:14:38.701Z,79.94
2018-09-02T04:17:07.646Z,76.82
2018-09-02T04:19:36.554Z,76.35
2018-09-02T04:22:05.546Z,77.14
2018-09-02T04:24:34.503Z,77.97
2018-09-02T04:27:03.459Z,77.54
2018-09-02T04:29:32.411Z,77.32
2018-09-02T04:32:02.210Z,76.86
2018-09-02T04:34:31.122Z,77.01
2018-09-02T04:37:00.055Z,78.73
2018-09-02T04:39:29.037Z,77.59
2018-09-02T04:41:57.962Z,77.24
2018-09-02T04:44:26.910Z,78.40
2018-09-02T04:46:55.862Z,79.23
2018-09-02T04:49:24.820Z,79.30
2018-09-02T04:51:53.751Z,79.34
2018-09-02T04:54:23.118Z,77.84
2018-09-02T04:56:51.974Z,77.56
2018-09-02T04:59:20.967Z,78.27
2018-09-02T05:01:49.921Z,79.04
2018-09-02T05:04:18.866Z,78.75
2018-09-02T05:06:47.923Z,79.33
2018-09-02T05:09:16.876Z,80.20
2018-09-02T05:11:45.787Z,79.12
2018-09-02T05:14:14.787Z,78.82
2018-09-02T05:16:43.700Z,79.40
2018-09-02T05:19:12.607Z,78.67
2018-09-02T05:21:41.936Z,79.93
2018-09-02T05:24:10.872Z,81.19
2018-09-02T05:26:39.823Z,80.56
2018-09-02T05:29:08.802Z,80.16
2018-09-02T05:31:37.717Z,79.91
2018-09-02T05:34:07.004Z,79.81
2018-09-02T05:36:35.958Z,80.59
2018-09-02T05:39:07.698Z,81.17
2018-09-02T05:41:36.619Z,80.60
2018-09-02T05:44:05.677Z,81.91
2018-09-02T05:46:34.624Z,81.86
2018-09-02T05:49:03.572Z,82.83
2018-09-02T05:51:32.871Z,82.94
2018-09-02T05:54:01.822Z,83.85
2018-09-02T05:56:30.721Z,84.04
2018-09-02T05:58:59.642Z,83.70
2018-09-02T06:01:28.611Z,83.70
2018-09-02T06:03:57.559Z,84.49
2018-09-02T06:06:26.529Z,84.60
2018-09-02T06:08:55.497Z,84.71
2018-09-02T06:11:24.450Z,84.79
2018-09-02T06:13:53.407Z,85.60
2018-09-02T06:16:22.302Z,85.06
2018-09-02T06:18:51.234Z,84.90
2018-09-02T06:21:23.959Z,85.60
2018-09-02T06:23:52.923Z,86.18
2018-09-02T06:26:21.864Z,86.45
2018-09-02T06:28:50.787Z,85.97
2018-09-02T06:31:19.813Z,87.18
2018-09-02T06:33:48.824Z,86.98
2018-09-02T06:36:18.091Z,86.34
2018-09-02T06:38:47.150Z,88.25
2018-09-02T06:41:16.088Z,88.05
2018-09-02T06:43:45.072Z,89.35
2018-09-02T06:46:14.019Z,88.74
2018-09-02T06:48:43.008Z,88.08
2018-09-02T06:51:11.963Z,91.42
2018-09-02T06:53:40.910Z,90.96
2018-09-02T06:56:09.832Z,91.41
2018-09-02T06:58:38.914Z,90.91
2018-09-02T07:01:07.722Z,91.48
2018-09-02T07:03:36.712Z,90.30
2018-09-02T07:06:05.737Z,90.31
2018-09-02T07:08:34.725Z,89.96
2018-09-02T07:11:03.673Z,89.53
2018-09-02T07:13:32.694Z,90.21
2018-09-02T07:16:01.790Z,89.50
2018-09-02T07:18:30.814Z,89.37
2018-09-02T07:20:59.774Z,89.99
2018-09-02T07:23:28.696Z,89.69
2018-09-02T07:25:57.672Z,89.26
2018-09-02T07:28:26.658Z,90.34
2018-09-02T07:30:55.635Z,90.21
2018-09-02T07:33:24.626Z,89.67
2018-09-02T07:35:53.567Z,89.18
2018-09-02T07:38:22.538Z,89.54
2018-09-02T07:40:51.487Z,88.48
2018-09-02T07:43:20.471Z,89.40
2018-09-02T07:45:49.390Z,88.80
2018-09-02T07:48:18.341Z,89.48
2018-09-02T07:50:47.303Z,89.82
2018-09-02T07:53:16.586Z,89.12
2018-09-02T07:55:45.736Z,89.12
2018-09-02T07:58:14.752Z,89.30
2018-09-02T08:00:43.642Z,89.14
2018-09-02T08:03:12.658Z,89.77
2018-09-02T08:05:41.625Z,89.44
2018-09-02T08:08:10.563Z,88.47
2018-09-02T08:10:39.507Z,88.68
2018-09-02T08:13:08.471Z,89.59
2018-09-02T08:15:37.397Z,88.93
2018-09-02T08:18:06.377Z,88.76
2018-09-02T08:20:35.646Z,88.34
2018-09-02T08:23:04.603Z,87.96
2018-09-02T08:25:33.538Z,88.87
2018-09-02T08:28:02.833Z,88.50
2018-09-02T08:30:31.729Z,88.07
2018-09-02T08:33:00.675Z,88.28
2018-09-02T08:35:29.596Z,88.42
2018-09-02T08:37:59.125Z,87.72
2018-09-02T08:40:28.460Z,87.65
2018-09-02T08:42:57.407Z,86.06
2018-09-02T08:45:26.377Z,85.27
2018-09-02T08:47:55.302Z,85.76
2018-09-02T08:50:24.368Z,86.29
2018-09-02T08:52:53.574Z,86.92
2018-09-02T08:55:22.503Z,86.66
2018-09-02T08:57:51.575Z,85.97
2018-09-02T09:00:20.907Z,87.01
2018-09-02T09:02:50.736Z,85.77
2018-09-02T09:05:19.729Z,85.56
2018-09-02T09:07:49.986Z,84.98
2018-09-02T09:10:19.176Z,84.84
2018-09-02T09:12:48.053Z,83.60
2018-09-02T09:15:16.966Z,83.74
2018-09-02T09:17:45.994Z,82.85
2018-09-02T09:20:14.951Z,82.72
2018-09-02T09:22:43.906Z,82.96
2018-09-02T09:25:12.943Z,83.45
2018-09-02T09:27:41.803Z,82.77
2018-09-02T09:30:10.962Z,81.72
2018-09-02T09:32:40.286Z,80.83
2018-09-02T09:35:09.194Z,81.36
2018-09-02T09:37:38.178Z,80.57
2018-09-02T09:40:07.241Z,80.08
2018-09-02T09:42:36.221Z,79.25
2018-09-02T09:45:05.259Z,78.86
2018-09-02T09:47:34.953Z,79.79
2018-09-02T09:50:03.986Z,79.48
2018-09-02T09:52:41.667Z,78.42
2018-09-02T09:55:10.615Z,78.60
2018-09-02T09:57:39.539Z,77.80
2018-09-02T10:00:08.492Z,79.08
2018-09-02T10:02:37.430Z,71.24
2018-09-02T10:05:06.354Z,74.07
2018-09-02T10:07:35.547Z,76.99
2018-09-02T10:10:04.506Z,75.87
2018-09-02T10:12:33.431Z,74.83
2018-09-02T10:15:02.458Z,76.20
2018-09-02T10:17:31.457Z,76.13
2018-09-02T10:20:00.683Z,74.94
2018-09-02T10:22:29.665Z,74.91
2018-09-02T10:24:58.597Z,72.67
2018-09-02T10:27:27.627Z,71.84
2018-09-02T10:29:56.557Z,72.59
2018-09-02T10:32:25.561Z,71.17
2018-09-02T10:34:54.496Z,70.98
2018-09-02T10:37:23.537Z,70.51
2018-09-02T10:39:52.518Z,70.59
2018-09-02T10:42:21.469Z,68.68
2018-09-02T10:44:50.445Z,70.19
2018-09-02T10:47:19.380Z,70.49
2018-09-02T10:49:48.367Z,69.52
2018-09-02T10:52:17.324Z,68.71
2018-09-02T10:54:46.331Z,69.08
2018-09-02T10:57:15.289Z,70.83
2018-09-02T10:59:44.380Z,71.44
2018-09-02T11:02:13.306Z,71.46
2018-09-02T11:04:42.820Z,71.00
2018-09-02T11:07:11.732Z,70.15
2018-09-02T11:09:40.695Z,68.38
2018-09-02T11:12:09.630Z,66.40
2018-09-02T11:14:38.636Z,68.38
2018-09-02T11:17:07.551Z,69.01
2018-09-02T11:19:36.502Z,69.37
2018-09-02T11:22:05.438Z,66.52
2018-09-02T11:24:34.395Z,65.85
2018-09-02T11:27:03.312Z,63.87
2018-09-02T11:29:32.631Z,65.33
2018-09-02T11:32:01.616Z,63.96
2018-09-02T11:34:30.554Z,65.81
2018-09-02T11:36:59.786Z,64.90
2018-09-02T11:39:28.769Z,65.64
2018-09-02T11:41:57.736Z,63.05
2018-09-02T11:44:26.703Z,60.91
2018-09-02T11:46:55.653Z,63.49
2018-09-02T11:49:24.931Z,63.13
2018-09-02T11:51:53.880Z,62.74
2018-09-02T11:54:22.811Z,64.30
2018-09-02T11:56:51.763Z,62.38
2018-09-02T11:59:20.695Z,62.55
2018-09-02T12:01:49.653Z,62.19
2018-09-02T12:04:18.608Z,61.09
2018-09-02T12:06:47.567Z,61.72
2018-09-02T12:09:16.573Z,63.21
2018-09-02T12:11:45.606Z,64.35
2018-09-02T12:14:14.645Z,61.79
2018-09-02T12:16:43.513Z,62.58
2018-09-02T12:19:12.457Z,62.52
2018-09-02T12:21:41.422Z,62.18
2018-09-02T12:24:11.148Z,62.37
2018-09-02T12:26:40.150Z,62.98
2018-09-02T12:29:09.148Z,63.40
2018-09-02T12:37:32.341Z,62.46
2018-09-02T12:40:01.306Z,61.54
2018-09-02T12:42:30.292Z,62.36
2018-09-02T12:44:59.321Z,61.07
2018-09-02T12:47:28.609Z,61.47
2018-09-02T12:49:57.591Z,61.24
2018-09-02T12:52:26.514Z,60.83
2018-09-02T12:54:55.542Z,61.21
2018-09-02T12:57:24.531Z,62.64
2018-09-02T12:59:53.477Z,61.68
2018-09-02T13:02:22.438Z,60.56
2018-09-02T13:04:51.442Z,60.94
2018-09-02T13:07:20.402Z,59.81
2018-09-02T13:09:49.409Z,60.02
2018-09-02T13:12:18.346Z,60.05
2018-09-02T13:14:48.243Z,60.76
2018-09-02T13:17:17.199Z,60.16
2018-09-02T13:19:46.184Z,60.31
2018-09-02T13:22:15.080Z,61.61
2018-09-02T13:24:44.094Z,60.70
2018-09-02T13:27:13.002Z,61.67
2018-09-02T13:29:41.977Z,60.20
2018-09-02T13:32:10.948Z,60.56
2018-09-02T13:34:39.930Z,61.31
2018-09-02T13:37:08.926Z,61.12
2018-09-02T13:39:38.175Z,61.20
2018-09-02T13:42:07.152Z,58.74
2018-09-02T13:44:36.076Z,58.41
2018-09-02T13:47:05.040Z,58.59
2018-09-02T13:49:33.946Z,60.21
2018-09-02T13:52:02.913Z,60.87
2018-09-02T13:54:31.913Z,61.68
2018-09-02T13:57:00.916Z,60.31
2018-09-02T13:59:29.899Z,59.60
2018-09-02T14:01:58.860Z,60.96
2018-09-02T14:04:27.842Z,61.10
2018-09-02T14:06:56.793Z,61.66
2018-09-02T14:09:25.733Z,61.56
2018-09-02T14:11:54.706Z,61.62
2018-09-02T14:14:23.673Z,59.38
2018-09-02T14:16:52.624Z,59.09
2018-09-02T14:21:49.813Z,58.76
2018-09-02T14:24:18.734Z,59.02
2018-09-02T14:26:47.686Z,58.77
2018-09-02T14:29:16.664Z,58.87
2018-09-02T14:31:45.645Z,58.36
2018-09-02T14:34:14.587Z,58.93
2018-09-02T14:36:43.560Z,58.05
2018-09-02T14:39:14.011Z,59.32
2018-09-02T14:41:43.347Z,59.24
2018-09-02T14:44:12.310Z,58.90
2018-09-02T14:46:41.269Z,58.32
2018-09-02T14:49:10.266Z,57.91
2018-09-02T14:51:39.279Z,58.83
2018-09-02T14:54:08.302Z,58.13
2018-09-02T14:56:37.421Z,58.74
2018-09-02T14:59:06.363Z,58.14
2018-09-02T15:01:35.312Z,59.16
2018-09-02T15:10:10.501Z,59.99
2018-09-02T15:12:39.502Z,58.53
2018-09-02T15:15:08.515Z,58.76
2018-09-02T15:17:37.484Z,58.26
2018-09-02T15:20:06.480Z,59.65
2018-09-02T15:22:35.422Z,57.16
2018-09-02T15:25:04.402Z,58.04
2018-09-02T15:27:33.408Z,58.24
2018-09-02T15:30:02.440Z,58.19
2018-09-02T15:32:31.458Z,58.71
2018-09-02T15:35:00.460Z,59.63
2018-09-02T15:37:29.415Z,58.67
2018-09-02T15:39:58.378Z,59.11
2018-09-02T15:42:27.556Z,58.49
2018-09-02T15:44:56.853Z,59.13
2018-09-02T15:47:25.822Z,59.30
2018-09-02T15:49:54.817Z,59.37
2018-09-02T15:52:23.784Z,59.42
2018-09-02T15:54:52.778Z,60.06
2018-09-02T15:57:21.780Z,59.86
2018-09-02T15:59:50.741Z,60.57
2018-09-02T16:02:19.688Z,60.15
2018-09-02T16:04:48.700Z,60.40
2018-09-02T16:07:17.724Z,60.32
2018-09-02T16:09:48.727Z,60.62
2018-09-02T16:12:18.935Z,60.80
2018-09-02T16:14:47.926Z,62.29
2018-09-02T16:17:16.910Z,63.76
2018-09-02T16:19:46.041Z,63.35
2018-09-02T16:22:15.147Z,64.25
2018-09-02T16:24:44.175Z,64.14
2018-09-02T16:27:13.150Z,64.01
2018-09-02T16:29:42.125Z,64.77
2018-09-02T16:32:15.165Z,64.85
2018-09-02T16:34:44.191Z,65.04
2018-09-02T16:37:13.139Z,65.72
2018-09-02T16:39:42.091Z,65.07
2018-09-02T16:42:11.056Z,66.16
2018-09-02T16:44:39.987Z,66.80
2018-09-02T16:47:09.164Z,67.05
2018-09-02T16:49:38.174Z,66.51
2018-09-02T16:52:08.322Z,67.66
2018-09-02T16:54:37.303Z,68.64
2018-09-02T16:57:06.570Z,69.20
2018-09-02T16:59:36.630Z,68.75
2018-09-02T17:02:05.605Z,69.89
2018-09-02T17:04:36.477Z,69.57
2018-09-02T17:07:05.417Z,70.46
2018-09-02T17:09:36.626Z,70.74
2018-09-02T17:12:05.665Z,71.02
2018-09-02T17:14:34.535Z,71.67
2018-09-02T17:17:03.535Z,70.75
2018-09-02T17:19:36.799Z,70.82
2018-09-02T17:22:05.973Z,71.49
2018-09-02T17:24:35.028Z,72.02
2018-09-02T17:27:03.988Z,72.40
2018-09-02T17:29:33.258Z,72.10
2018-09-02T17:32:05.363Z,72.22
2018-09-02T17:34:34.363Z,71.62
2018-09-02T17:37:03.419Z,71.80
2018-09-02T17:39:32.784Z,72.52
2018-09-02T17:42:02.729Z,72.93
2018-09-02T17:44:31.719Z,73.31
2018-09-02T17:47:00.706Z,72.58
2018-09-02T17:49:29.708Z,73.52
2018-09-02T17:51:58.926Z,73.80
2018-09-02T17:54:27.936Z,73.84
2018-09-02T17:56:56.874Z,73.77
2018-09-02T17:59:25.893Z,74.53
2018-09-02T18:01:54.919Z,73.99
2018-09-02T18:04:24.423Z,74.44
2018-09-02T18:06:54.539Z,74.48
2018-09-02T18:09:23.620Z,74.59
2018-09-02T18:11:52.533Z,74.42
2018-09-02T18:14:21.588Z,74.91
2018-09-02T18:16:50.640Z,75.88
2018-09-02T18:19:19.613Z,75.11
2018-09-02T18:21:48.613Z,74.90
2018-09-02T18:24:17.571Z,76.40
2018-09-02T18:26:46.723Z,76.38
2018-09-02T18:29:16.344Z,76.64
2018-09-02T18:31:45.948Z,76.54
2018-09-02T18:34:15.941Z,77.65
2018-09-02T18:36:44.903Z,77.51
2018-09-02T18:39:13.907Z,77.51
2018-09-02T18:41:43.745Z,77.33
2018-09-02T18:44:13.585Z,79.01
2018-09-02T18:46:43.450Z,78.60
2018-09-02T18:49:13.104Z,78.24
2018-09-02T18:51:42.274Z,78.19
2018-09-02T18:54:11.279Z,78.15
2018-09-02T18:56:40.258Z,78.53
2018-09-02T18:59:09.178Z,78.31
2018-09-02T19:01:44.901Z,79.81
2018-09-02T19:04:14.111Z,79.06
2018-09-02T19:06:43.065Z,80.29
2018-09-02T19:09:12.413Z,79.92
2018-09-02T19:11:41.433Z,78.53
2018-09-02T19:14:10.647Z,80.65
2018-09-02T19:16:40.559Z,80.07
2018-09-02T19:19:10.807Z,79.57
2018-09-02T19:21:39.973Z,80.29
2018-09-02T19:24:09.179Z,80.38
2018-09-02T19:26:38.403Z,79.61
2018-09-02T19:29:07.379Z,80.09
2018-09-02T19:31:36.404Z,80.26
2018-09-02T19:34:06.142Z,79.74
2018-09-02T19:36:35.253Z,80.14
2018-09-02T19:39:06.022Z,81.19
2018-09-02T19:41:34.966Z,79.88
2018-09-02T19:44:03.947Z,80.90
2018-09-02T19:46:32.886Z,80.68
2018-09-02T19:49:01.973Z,79.79
2018-09-02T19:51:30.959Z,80.38
2018-09-02T19:54:00.045Z,80.34
2018-09-02T19:56:28.992Z,80.56
2018-09-02T19:58:58.044Z,79.77
2018-09-02T20:01:27.028Z,79.41
2018-09-02T20:03:55.971Z,79.55
2018-09-02T20:06:25.647Z,79.82
2018-09-02T20:08:54.597Z,79.27
2018-09-02T20:11:23.524Z,79.14
2018-09-02T20:13:52.549Z,78.86
2018-09-02T20:16:21.693Z,78.99
2018-09-02T20:18:50.644Z,78.61
2018-09-02T20:21:19.729Z,78.62
2018-09-02T20:23:48.777Z,77.55
2018-09-02T20:26:18.437Z,78.00
2018-09-02T20:28:47.454Z,77.83
2018-09-02T20:31:16.711Z,78.10
2018-09-02T20:33:45.761Z,77.80
2018-09-02T20:36:14.776Z,77.58
2018-09-02T20:38:44.238Z,76.69
2018-09-02T20:41:13.216Z,76.52
2018-09-02T20:43:42.208Z,76.40
2018-09-02T20:46:11.778Z,75.88
2018-09-02T20:48:40.737Z,75.88
2018-09-02T20:51:10.178Z,75.74
2018-09-02T20:53:39.073Z,74.97
2018-09-02T20:56:07.985Z,75.22
2018-09-02T20:58:36.982Z,75.82
2018-09-02T21:01:06.342Z,75.34
2018-09-02T21:03:35.283Z,75.40
2018-09-02T21:06:04.316Z,75.25
2018-09-02T21:08:33.448Z,75.33
2018-09-02T21:11:02.779Z,75.33
2018-09-02T21:13:31.851Z,75.29
2018-09-02T21:16:00.904Z,74.42
2018-09-02T21:18:30.015Z,75.20
2018-09-02T21:20:59.065Z,75.79
2018-09-02T21:23:28.151Z,75.37
2018-09-02T21:25:57.087Z,75.43
2018-09-02T21:28:27.188Z,76.17
2018-09-02T21:30:56.105Z,76.06
2018-09-02T21:33:25.157Z,75.72
2018-09-02T21:35:54.224Z,75.43
2018-09-02T21:38:23.348Z,75.71
2018-09-02T21:40:52.430Z,75.19
2018-09-02T21:43:21.396Z,75.81
2018-09-02T21:45:50.385Z,76.26
2018-09-02T21:48:19.413Z,77.02
2018-09-02T21:50:48.396Z,76.36
2018-09-02T21:53:17.405Z,76.35
2018-09-02T21:55:46.402Z,76.31
2018-09-02T21:58:15.420Z,76.60
2018-09-02T22:00:44.389Z,77.70
2018-09-02T22:03:16.323Z,77.26
2018-09-02T22:05:45.259Z,77.78
2018-09-02T22:08:14.252Z,77.92
2018-09-02T22:10:43.244Z,77.92
2018-09-02T22:13:12.674Z,77.56
2018-09-02T22:15:41.596Z,78.32
2018-09-02T22:18:10.687Z,77.74
2018-09-02T22:20:39.930Z,78.39
2018-09-02T22:23:08.932Z,78.10
2018-09-02T22:25:40.496Z,79.07
2018-09-02T22:28:09.885Z,79.19
2018-09-02T22:30:39.953Z,78.43
2018-09-02T22:33:11.096Z,78.75
2018-09-02T22:35:40.219Z,79.92
2018-09-02T22:38:09.224Z,79.39
2018-09-02T22:40:38.236Z,79.15
2018-09-02T22:43:07.770Z,79.90
2018-09-02T22:45:36.729Z,79.36
2018-09-02T22:48:05.665Z,79.00
2018-09-02T22:50:34.806Z,79.69
2018-09-02T22:53:03.791Z,79.99
2018-09-02T22:55:32.731Z,80.13
2018-09-02T22:58:01.794Z,79.33
2018-09-02T23:00:30.672Z,79.13
2018-09-02T23:02:59.588Z,79.96
2018-09-02T23:05:28.537Z,80.00
2018-09-02T23:07:57.509Z,79.33
2018-09-02T23:10:26.511Z,79.23
2018-09-02T23:12:55.466Z,79.22
2018-09-02T23:15:24.497Z,79.01
2018-09-02T23:17:53.462Z,79.54
2018-09-02T23:20:22.439Z,79.08
2018-09-02T23:22:51.402Z,79.60
2018-09-02T23:25:20.651Z,79.48
2018-09-02T23:27:49.602Z,80.07
2018-09-02T23:30:18.571Z,80.05
2018-09-02T23:32:47.613Z,79.58
2018-09-02T23:35:16.552Z,79.41
2018-09-02T23:37:45.497Z,80.40
2018-09-02T23:40:15.037Z,79.93
2018-09-02T23:42:44.301Z,81.27
2018-09-02T23:45:13.230Z,80.68
2018-09-02T23:47:42.143Z,81.20
2018-09-02T23:50:11.154Z,81.37
2018-09-02T23:52:40.050Z,80.98
2018-09-02T23:55:08.977Z,81.16
2018-09-02T23:57:37.956Z,81.87
